createdAt,value
2019-02-06T00:00:28.667Z,429.13
2019-02-06T00:01:28.714Z,429.25
2019-02-06T00:02:28.624Z,425.54
2019-02-06T00:03:28.618Z,429.65
2019-02-06T00:04:28.641Z,429.95
2019-02-06T00:05:28.602Z,428.77
2019-02-06T00:06:28.626Z,427.01
2019-02-06T00:07:28.579Z,426.45
2019-02-06T00:08:28.574Z,431.09
2019-02-06T00:09:28.545Z,431.57
2019-02-06T00:10:28.545Z,430.81
2019-02-06T00:11:28.530Z,431.89
2019-02-06T00:12:28.549Z,429.88
2019-02-06T00:13:28.522Z,432.21
2019-02-06T00:14:28.523Z,432.44
2019-02-06T00:15:28.498Z,428.46
2019-02-06T00:16:28.508Z,430.76
2019-02-06T00:17:28.470Z,431.65
2019-02-06T00:18:28.476Z,428.20
2019-02-06T00:19:28.444Z,430.55
2019-02-06T00:20:28.435Z,428.27
2019-02-06T00:21:28.443Z,432.01
2019-02-06T00:22:28.402Z,429.64
2019-02-06T00:23:28.390Z,427.66
2019-02-06T00:24:28.414Z,430.03
2019-02-06T00:25:28.385Z,429.10
2019-02-06T00:26:28.378Z,431.84
2019-02-06T00:27:28.396Z,430.27
2019-02-06T00:28:28.376Z,429.30
2019-02-06T00:29:28.331Z,432.15
2019-02-06T00:30:28.332Z,435.48
2019-02-06T00:31:28.316Z,431.82
2019-02-06T00:32:28.303Z,432.50
2019-02-06T00:33:28.309Z,433.80
2019-02-06T00:34:28.276Z,435.08
2019-02-06T00:35:28.284Z,431.24
2019-02-06T00:36:28.263Z,433.66
2019-02-06T00:37:28.253Z,432.68
2019-02-06T00:38:28.239Z,432.43
2019-02-06T00:39:28.260Z,430.24
2019-02-06T00:40:28.211Z,431.61
2019-02-06T00:41:28.197Z,431.96
2019-02-06T00:42:28.179Z,428.35
2019-02-06T00:43:28.173Z,431.61
2019-02-06T00:44:28.175Z,429.98
2019-02-06T00:45:28.192Z,426.59
2019-02-06T00:46:28.142Z,427.98
2019-02-06T00:47:28.132Z,429.53
2019-02-06T00:48:28.128Z,428.84
2019-02-06T00:49:28.118Z,428.22
2019-02-06T00:50:28.117Z,427.29
2019-02-06T00:51:28.242Z,425.22
2019-02-06T00:52:28.079Z,430.22
2019-02-06T00:53:28.073Z,432.90
2019-02-06T00:54:28.058Z,433.05
2019-02-06T00:55:28.048Z,432.75
2019-02-06T00:56:28.053Z,427.57
2019-02-06T00:57:28.387Z,428.06
2019-02-06T00:58:28.028Z,432.67
2019-02-06T00:59:28.011Z,428.28
2019-02-06T01:00:28.480Z,433.22
2019-02-06T01:01:27.974Z,430.94
2019-02-06T01:02:27.994Z,428.82
2019-02-06T01:03:28.004Z,429.83
2019-02-06T01:04:27.945Z,427.60
2019-02-06T01:05:37.955Z,430.75
2019-02-06T01:06:28.923Z,431.93
2019-02-06T01:07:27.916Z,430.92
2019-02-06T01:08:27.909Z,432.61
2019-02-06T01:09:27.915Z,430.59
2019-02-06T01:10:27.890Z,431.39
2019-02-06T01:11:27.877Z,431.63
2019-02-06T01:12:27.867Z,430.79
2019-02-06T01:13:27.881Z,433.93
2019-02-06T01:14:27.837Z,431.43
2019-02-06T01:15:27.825Z,431.60
2019-02-06T01:16:27.824Z,428.61
2019-02-06T01:17:27.834Z,433.80
2019-02-06T01:18:27.816Z,430.96
2019-02-06T01:19:27.860Z,430.14
2019-02-06T01:20:27.824Z,432.03
2019-02-06T01:21:27.818Z,431.37
2019-02-06T01:22:27.771Z,430.98
2019-02-06T01:23:27.767Z,431.80
2019-02-06T01:24:27.775Z,428.48
2019-02-06T01:25:28.070Z,428.55
2019-02-06T01:26:27.728Z,429.80
2019-02-06T01:27:28.040Z,431.15
2019-02-06T01:28:27.828Z,433.22
2019-02-06T01:29:27.733Z,428.53
2019-02-06T01:30:27.696Z,430.92
2019-02-06T01:31:27.682Z,429.41
2019-02-06T01:32:27.948Z,430.49
2019-02-06T01:33:27.713Z,433.78
2019-02-06T01:34:27.625Z,428.46
2019-02-06T01:35:27.620Z,430.59
2019-02-06T01:36:27.599Z,431.07
2019-02-06T01:37:27.608Z,431.70
2019-02-06T01:38:27.584Z,431.69
2019-02-06T01:39:27.570Z,430.57
2019-02-06T01:40:27.631Z,432.25
2019-02-06T01:41:27.571Z,436.18
2019-02-06T01:42:27.561Z,429.32
2019-02-06T01:43:27.645Z,429.24
2019-02-06T01:44:27.512Z,429.95
2019-02-06T01:45:27.501Z,433.73
2019-02-06T01:46:27.490Z,432.33
2019-02-06T01:47:27.560Z,429.43
2019-02-06T01:48:27.488Z,430.05
2019-02-06T01:49:27.471Z,430.40
2019-02-06T01:50:27.447Z,433.12
2019-02-06T01:51:27.482Z,432.34
2019-02-06T01:52:27.437Z,425.36
2019-02-06T01:53:27.447Z,429.53
2019-02-06T01:54:27.410Z,429.32
2019-02-06T01:55:27.396Z,427.25
2019-02-06T01:56:27.380Z,427.18
2019-02-06T01:57:27.389Z,428.73
2019-02-06T01:58:27.638Z,430.31
2019-02-06T01:59:27.347Z,432.09
2019-02-06T02:00:27.341Z,431.50
2019-02-06T02:01:27.331Z,432.85
2019-02-06T02:02:27.323Z,432.21
2019-02-06T02:03:27.575Z,432.58
2019-02-06T02:04:27.291Z,433.89
2019-02-06T02:05:27.279Z,432.55
2019-02-06T02:06:27.317Z,431.84
2019-02-06T02:07:27.292Z,429.84
2019-02-06T02:08:27.258Z,429.37
2019-02-06T02:09:27.266Z,430.80
2019-02-06T02:10:27.246Z,433.11
2019-02-06T02:11:27.218Z,430.28
2019-02-06T02:12:27.212Z,434.26
2019-02-06T02:13:27.221Z,432.51
2019-02-06T02:14:27.213Z,433.76
2019-02-06T02:15:27.571Z,431.86
2019-02-06T02:16:27.331Z,430.61
2019-02-06T02:17:27.203Z,433.77
2019-02-06T02:18:27.190Z,429.95
2019-02-06T02:19:27.143Z,432.96
2019-02-06T02:20:27.493Z,429.73
2019-02-06T02:21:27.172Z,431.69
2019-02-06T02:22:27.229Z,435.22
2019-02-06T02:23:27.121Z,434.49
2019-02-06T02:24:27.072Z,431.75
2019-02-06T02:25:27.179Z,428.09
2019-02-06T02:26:27.053Z,428.35
2019-02-06T02:27:27.092Z,431.76
2019-02-06T02:28:27.048Z,430.85
2019-02-06T02:29:27.022Z,430.35
2019-02-06T02:30:27.013Z,430.85
2019-02-06T02:31:27.026Z,432.64
2019-02-06T02:32:27.058Z,432.44
2019-02-06T02:33:26.978Z,430.27
2019-02-06T02:34:26.974Z,428.02
2019-02-06T02:35:26.975Z,428.95
2019-02-06T02:36:26.975Z,433.50
2019-02-06T02:37:26.955Z,433.44
2019-02-06T02:38:26.922Z,435.04
2019-02-06T02:39:26.910Z,431.36
2019-02-06T02:40:27.030Z,431.42
2019-02-06T02:41:26.947Z,433.86
2019-02-06T02:42:26.899Z,436.97
2019-02-06T02:43:27.102Z,432.90
2019-02-06T02:44:26.925Z,433.37
2019-02-06T02:45:26.927Z,433.74
2019-02-06T02:46:26.834Z,432.02
2019-02-06T02:47:26.825Z,432.34
2019-02-06T02:48:26.838Z,431.67
2019-02-06T02:49:26.851Z,431.81
2019-02-06T02:50:26.820Z,430.74
2019-02-06T02:51:27.005Z,431.61
2019-02-06T02:52:26.771Z,432.91
2019-02-06T02:53:26.756Z,434.85
2019-02-06T02:54:26.777Z,434.97
2019-02-06T02:55:26.743Z,429.89
2019-02-06T02:56:26.724Z,436.34
2019-02-06T02:57:26.729Z,433.39
2019-02-06T02:58:26.718Z,434.57
2019-02-06T02:59:26.687Z,435.12
2019-02-06T03:00:26.692Z,431.07
2019-02-06T03:01:26.675Z,430.36
2019-02-06T03:02:26.665Z,432.21
2019-02-06T03:03:26.673Z,432.01
2019-02-06T03:04:26.638Z,432.90
2019-02-06T03:05:26.734Z,433.68
2019-02-06T03:06:28.493Z,433.29
2019-02-06T03:07:26.607Z,432.06
2019-02-06T03:08:26.621Z,436.43
2019-02-06T03:09:26.631Z,437.34
2019-02-06T03:10:26.573Z,432.56
2019-02-06T03:11:26.656Z,429.83
2019-02-06T03:12:26.592Z,431.00
2019-02-06T03:13:26.572Z,429.57
2019-02-06T03:14:26.531Z,427.71
2019-02-06T03:15:26.552Z,431.93
2019-02-06T03:16:26.511Z,431.26
2019-02-06T03:17:26.492Z,438.24
2019-02-06T03:18:26.480Z,430.76
2019-02-06T03:19:26.489Z,430.00
2019-02-06T03:20:26.469Z,429.18
2019-02-06T03:21:26.468Z,435.47
2019-02-06T03:22:26.445Z,433.01
2019-02-06T03:23:26.477Z,432.48
2019-02-06T03:24:26.417Z,433.83
2019-02-06T03:25:26.407Z,429.30
2019-02-06T03:26:26.405Z,430.84
2019-02-06T03:27:26.404Z,431.25
2019-02-06T03:28:26.377Z,434.15
2019-02-06T03:29:26.384Z,437.01
2019-02-06T03:30:26.475Z,432.66
2019-02-06T03:31:26.390Z,437.64
2019-02-06T03:32:26.348Z,434.51
2019-02-06T03:33:26.329Z,434.02
2019-02-06T03:34:26.386Z,434.71
2019-02-06T03:35:26.312Z,435.48
2019-02-06T03:36:26.404Z,434.50
2019-02-06T03:37:26.280Z,433.85
2019-02-06T03:38:26.283Z,431.71
2019-02-06T03:39:26.335Z,430.61
2019-02-06T03:40:26.345Z,433.70
2019-02-06T03:41:26.311Z,428.93
2019-02-06T03:42:26.231Z,431.00
2019-02-06T03:43:26.258Z,430.14
2019-02-06T03:44:26.206Z,433.71
2019-02-06T03:45:26.285Z,432.43
2019-02-06T03:46:26.186Z,433.72
2019-02-06T03:47:26.203Z,434.35
2019-02-06T03:48:26.197Z,431.04
2019-02-06T03:49:26.153Z,436.51
2019-02-06T03:50:26.145Z,435.26
2019-02-06T03:51:26.184Z,434.72
2019-02-06T03:52:26.131Z,432.60
2019-02-06T03:53:26.131Z,434.73
2019-02-06T03:54:26.102Z,435.68
2019-02-06T03:55:26.081Z,433.83
2019-02-06T03:56:26.074Z,432.57
2019-02-06T03:57:26.054Z,433.82
2019-02-06T03:58:26.211Z,432.31
2019-02-06T03:59:26.078Z,432.46
2019-02-06T04:00:26.091Z,430.89
2019-02-06T04:01:26.184Z,433.47
2019-02-06T04:02:26.010Z,437.99
2019-02-06T04:03:26.117Z,440.27
2019-02-06T04:04:25.998Z,434.94
2019-02-06T04:05:26.018Z,435.83
2019-02-06T04:06:26.077Z,434.86
2019-02-06T04:07:25.950Z,440.08
2019-02-06T04:08:25.945Z,433.52
2019-02-06T04:09:25.929Z,435.46
2019-02-06T04:10:25.944Z,435.36
2019-02-06T04:11:25.909Z,429.86
2019-02-06T04:12:25.951Z,435.20
2019-02-06T04:13:25.897Z,434.99
2019-02-06T04:14:25.994Z,437.29
2019-02-06T04:15:25.899Z,436.45
2019-02-06T04:16:26.021Z,436.39
2019-02-06T04:17:25.937Z,434.36
2019-02-06T04:18:25.872Z,435.01
2019-02-06T04:19:25.856Z,438.35
2019-02-06T04:20:25.805Z,434.79
2019-02-06T04:21:25.790Z,432.34
2019-02-06T04:22:25.791Z,432.92
2019-02-06T04:23:25.820Z,436.36
2019-02-06T04:24:25.805Z,435.16
2019-02-06T04:25:25.757Z,434.92
2019-02-06T04:26:25.771Z,432.72
2019-02-06T04:27:25.766Z,433.70
2019-02-06T04:28:25.726Z,434.13
2019-02-06T04:29:25.709Z,437.06
2019-02-06T04:30:25.710Z,433.63
2019-02-06T04:31:25.690Z,433.61
2019-02-06T04:32:25.692Z,435.46
2019-02-06T04:33:25.682Z,433.83
2019-02-06T04:34:25.699Z,434.37
2019-02-06T04:35:25.639Z,434.02
2019-02-06T04:36:25.635Z,430.36
2019-02-06T04:37:25.621Z,433.32
2019-02-06T04:38:25.637Z,431.74
2019-02-06T04:39:25.616Z,432.87
2019-02-06T04:40:25.586Z,433.23
2019-02-06T04:41:25.571Z,433.17
2019-02-06T04:42:25.564Z,430.18
2019-02-06T04:43:25.588Z,431.40
2019-02-06T04:44:25.567Z,432.99
2019-02-06T04:45:25.541Z,432.14
2019-02-06T04:46:25.524Z,430.01
2019-02-06T04:47:25.507Z,434.89
2019-02-06T04:48:25.524Z,432.92
2019-02-06T04:49:25.527Z,430.61
2019-02-06T04:50:25.587Z,431.17
2019-02-06T04:51:25.479Z,433.12
2019-02-06T04:52:25.455Z,429.75
2019-02-06T04:53:25.462Z,430.39
2019-02-06T04:54:25.464Z,428.31
2019-02-06T04:55:25.428Z,436.00
2019-02-06T04:56:25.418Z,435.05
2019-02-06T04:57:25.413Z,436.21
2019-02-06T04:58:25.399Z,432.42
2019-02-06T04:59:25.429Z,433.91
2019-02-06T05:00:25.382Z,434.67
2019-02-06T05:01:25.364Z,431.28
2019-02-06T05:02:25.351Z,432.94
2019-02-06T05:03:25.940Z,437.01
2019-02-06T05:04:25.352Z,432.64
2019-02-06T05:05:25.344Z,436.48
2019-02-06T05:06:25.302Z,432.55
2019-02-06T05:07:25.305Z,430.79
2019-02-06T05:08:25.291Z,431.78
2019-02-06T05:09:25.282Z,431.35
2019-02-06T05:10:25.288Z,434.88
2019-02-06T05:11:25.311Z,436.33
2019-02-06T05:12:25.238Z,432.60
2019-02-06T05:13:25.233Z,435.23
2019-02-06T05:14:25.236Z,437.55
2019-02-06T05:15:25.217Z,432.96
2019-02-06T05:16:25.204Z,436.80
2019-02-06T05:17:25.213Z,436.82
2019-02-06T05:18:25.175Z,436.73
2019-02-06T05:19:25.161Z,435.95
2019-02-06T05:20:25.163Z,434.20
2019-02-06T05:21:25.149Z,438.34
2019-02-06T05:22:25.176Z,436.84
2019-02-06T05:23:25.128Z,434.45
2019-02-06T05:24:25.112Z,432.33
2019-02-06T05:25:25.103Z,435.74
2019-02-06T05:26:25.088Z,434.52
2019-02-06T05:27:25.075Z,434.66
2019-02-06T05:28:25.090Z,432.61
2019-02-06T05:29:25.058Z,433.56
2019-02-06T05:30:25.088Z,436.34
2019-02-06T05:31:25.037Z,431.44
2019-02-06T05:32:25.019Z,432.51
2019-02-06T05:33:25.394Z,433.98
2019-02-06T05:34:25.016Z,432.88
2019-02-06T05:35:24.990Z,434.62
2019-02-06T05:36:24.975Z,437.24
2019-02-06T05:37:32.034Z,435.20
2019-02-06T05:38:25.954Z,433.55
2019-02-06T05:39:24.970Z,435.57
2019-02-06T05:40:24.960Z,436.18
2019-02-06T05:41:24.937Z,435.10
2019-02-06T05:42:24.950Z,438.82
2019-02-06T05:43:24.933Z,448.12
2019-02-06T05:44:24.919Z,445.55
2019-02-06T05:45:24.887Z,460.42
2019-02-06T05:46:24.873Z,440.65
2019-02-06T05:47:24.866Z,440.49
2019-02-06T05:48:24.864Z,441.56
2019-02-06T05:49:24.878Z,437.94
2019-02-06T05:50:24.831Z,439.02
2019-02-06T05:51:24.814Z,438.10
2019-02-06T05:52:24.819Z,438.09
2019-02-06T05:53:24.822Z,434.91
2019-02-06T05:54:24.802Z,438.26
2019-02-06T05:55:24.809Z,439.21
2019-02-06T05:56:24.766Z,435.27
2019-02-06T05:57:24.762Z,431.41
2019-02-06T05:58:24.740Z,431.93
2019-02-06T05:59:24.738Z,433.85
2019-02-06T06:00:24.774Z,434.08
2019-02-06T06:01:24.715Z,433.27
2019-02-06T06:02:24.707Z,431.84
2019-02-06T06:03:24.695Z,433.82
2019-02-06T06:04:24.707Z,434.28
2019-02-06T06:05:24.706Z,436.01
2019-02-06T06:06:24.703Z,429.99
2019-02-06T06:07:24.652Z,431.69
2019-02-06T06:08:24.633Z,435.22
2019-02-06T06:09:24.626Z,432.31
2019-02-06T06:10:24.631Z,429.08
2019-02-06T06:11:24.674Z,433.98
2019-02-06T06:12:24.607Z,432.79
2019-02-06T06:13:24.595Z,434.04
2019-02-06T06:14:24.578Z,430.14
2019-02-06T06:15:24.578Z,433.07
2019-02-06T06:16:24.579Z,429.12
2019-02-06T06:17:24.543Z,430.82
2019-02-06T06:18:24.531Z,428.52
2019-02-06T06:19:24.533Z,432.72
2019-02-06T06:20:24.511Z,431.91
2019-02-06T06:21:24.511Z,433.96
2019-02-06T06:22:24.498Z,430.22
2019-02-06T06:23:24.483Z,432.15
2019-02-06T06:24:24.495Z,433.27
2019-02-06T06:25:24.490Z,431.26
2019-02-06T06:26:24.448Z,434.30
2019-02-06T06:27:24.464Z,430.89
2019-02-06T06:28:24.422Z,433.76
2019-02-06T06:29:24.405Z,431.27
2019-02-06T06:30:24.399Z,429.31
2019-02-06T06:31:24.389Z,431.29
2019-02-06T06:32:24.425Z,432.79
2019-02-06T06:33:24.377Z,425.74
2019-02-06T06:34:24.406Z,430.88
2019-02-06T06:35:24.346Z,428.92
2019-02-06T06:36:24.334Z,429.73
2019-02-06T06:37:24.325Z,429.21
2019-02-06T06:38:24.335Z,431.71
2019-02-06T06:39:24.317Z,428.27
2019-02-06T06:40:24.292Z,428.21
2019-02-06T06:41:24.279Z,431.64
2019-02-06T06:42:24.405Z,430.35
2019-02-06T06:43:24.287Z,431.72
2019-02-06T06:44:24.251Z,426.02
2019-02-06T06:45:24.243Z,430.28
2019-02-06T06:46:24.239Z,429.88
2019-02-06T06:47:24.228Z,431.16
2019-02-06T06:48:24.235Z,434.95
2019-02-06T06:49:24.227Z,432.93
2019-02-06T06:50:24.187Z,426.35
2019-02-06T06:51:24.172Z,426.26
2019-02-06T06:52:24.174Z,433.07
2019-02-06T06:53:24.163Z,429.76
2019-02-06T06:54:24.157Z,425.70
2019-02-06T06:55:24.125Z,429.24
2019-02-06T06:56:24.126Z,427.81
2019-02-06T06:57:24.113Z,429.22
2019-02-06T06:58:24.118Z,428.90
2019-02-06T06:59:24.134Z,425.98
2019-02-06T07:00:24.081Z,431.52
2019-02-06T07:01:24.109Z,429.79
2019-02-06T07:02:24.072Z,426.10
2019-02-06T07:03:24.057Z,426.78
2019-02-06T07:04:24.074Z,424.92
2019-02-06T07:05:24.050Z,424.93
2019-02-06T07:06:24.013Z,428.29
2019-02-06T07:07:24.011Z,427.08
2019-02-06T07:08:23.981Z,429.62
2019-02-06T07:09:23.996Z,432.09
2019-02-06T07:10:23.972Z,428.88
2019-02-06T07:11:23.973Z,426.51
2019-02-06T07:12:23.942Z,425.25
2019-02-06T07:13:23.928Z,428.30
2019-02-06T07:14:23.952Z,427.98
2019-02-06T07:15:23.933Z,429.23
2019-02-06T07:16:23.918Z,427.37
2019-02-06T07:17:23.899Z,430.23
2019-02-06T07:18:23.892Z,427.60
2019-02-06T07:19:23.877Z,428.20
2019-02-06T07:20:23.877Z,427.94
2019-02-06T07:21:23.847Z,423.12
2019-02-06T07:22:23.868Z,425.76
2019-02-06T07:23:23.839Z,424.65
2019-02-06T07:24:23.836Z,425.68
2019-02-06T07:25:23.815Z,426.13
2019-02-06T07:26:23.799Z,428.55
2019-02-06T07:27:23.810Z,421.80
2019-02-06T07:28:23.782Z,424.82
2019-02-06T07:29:23.763Z,421.58
2019-02-06T07:30:23.807Z,422.43
2019-02-06T07:31:23.757Z,423.48
2019-02-06T07:32:23.775Z,424.59
2019-02-06T07:33:23.728Z,424.77
2019-02-06T07:34:23.704Z,421.78
2019-02-06T07:35:23.698Z,421.92
2019-02-06T07:36:23.726Z,422.09
2019-02-06T07:37:23.684Z,423.05
2019-02-06T07:38:24.622Z,420.08
2019-02-06T07:39:23.663Z,422.00
2019-02-06T07:40:23.661Z,418.37
2019-02-06T07:41:23.662Z,424.19
2019-02-06T07:42:23.636Z,421.02
2019-02-06T07:43:23.635Z,421.26
2019-02-06T07:44:23.599Z,420.49
2019-02-06T07:45:23.587Z,420.66
2019-02-06T07:46:23.579Z,419.33
2019-02-06T07:47:23.583Z,423.16
2019-02-06T07:48:23.611Z,423.75
2019-02-06T07:49:23.556Z,421.11
2019-02-06T07:50:23.556Z,423.64
2019-02-06T07:51:23.538Z,422.04
2019-02-06T07:52:23.539Z,422.47
2019-02-06T07:53:23.503Z,420.93
2019-02-06T07:54:23.487Z,425.46
2019-02-06T07:55:23.480Z,424.51
2019-02-06T07:56:23.473Z,423.27
2019-02-06T07:57:23.465Z,423.57
2019-02-06T07:58:23.474Z,425.05
2019-02-06T07:59:23.435Z,425.30
2019-02-06T08:00:23.430Z,417.99
2019-02-06T08:01:23.465Z,420.14
2019-02-06T08:02:23.407Z,422.09
2019-02-06T08:03:23.404Z,428.07
2019-02-06T08:04:23.407Z,427.82
2019-02-06T08:05:23.406Z,422.92
2019-02-06T08:06:23.355Z,424.47
2019-02-06T08:07:23.355Z,423.50
2019-02-06T08:08:23.346Z,423.53
2019-02-06T08:09:23.368Z,423.27
2019-02-06T08:10:23.320Z,422.16
2019-02-06T08:11:23.311Z,419.93
2019-02-06T08:12:23.289Z,423.20
2019-02-06T08:13:23.286Z,416.71
2019-02-06T08:14:23.275Z,415.61
2019-02-06T08:15:23.292Z,416.28
2019-02-06T08:16:23.257Z,418.25
2019-02-06T08:17:23.335Z,421.77
2019-02-06T08:18:23.231Z,422.36
2019-02-06T08:19:23.230Z,410.47
2019-02-06T08:20:23.241Z,406.50
2019-02-06T08:21:23.214Z,407.44
2019-02-06T08:22:23.194Z,411.56
2019-02-06T08:23:23.181Z,422.73
2019-02-06T08:24:23.168Z,418.07
2019-02-06T08:25:23.188Z,414.41
2019-02-06T08:26:23.137Z,416.69
2019-02-06T08:27:26.218Z,411.05
2019-02-06T08:28:23.135Z,418.26
2019-02-06T08:29:23.115Z,417.66
2019-02-06T08:30:23.103Z,422.19
2019-02-06T08:31:23.109Z,417.02
2019-02-06T08:32:23.163Z,414.77
2019-02-06T08:33:23.074Z,417.21
2019-02-06T08:34:23.059Z,410.04
2019-02-06T08:35:23.064Z,418.82
2019-02-06T08:36:23.067Z,417.53
2019-02-06T08:37:23.040Z,417.73
2019-02-06T08:38:23.003Z,420.08
2019-02-06T08:39:22.998Z,425.13
2019-02-06T08:40:23.024Z,421.05
2019-02-06T08:41:23.018Z,418.96
2019-02-06T08:42:22.998Z,426.49
2019-02-06T08:43:22.965Z,424.96
2019-02-06T08:44:22.953Z,423.33
2019-02-06T08:45:22.937Z,426.20
2019-02-06T08:46:22.958Z,424.04
2019-02-06T08:47:22.943Z,421.72
2019-02-06T08:48:22.897Z,421.04
2019-02-06T08:49:22.991Z,416.59
2019-02-06T08:50:22.892Z,417.29
2019-02-06T08:51:22.856Z,420.23
2019-02-06T08:52:22.906Z,410.70
2019-02-06T08:53:22.926Z,415.61
2019-02-06T08:54:22.840Z,421.15
2019-02-06T08:55:22.839Z,409.38
2019-02-06T08:56:22.815Z,425.79
2019-02-06T08:57:22.854Z,417.13
2019-02-06T08:58:22.801Z,399.64
2019-02-06T08:59:22.784Z,420.46
2019-02-06T09:00:22.772Z,415.42
2019-02-06T09:01:22.760Z,397.63
2019-02-06T09:02:22.744Z,415.25
2019-02-06T09:03:22.745Z,410.64
2019-02-06T09:04:22.751Z,409.69
2019-02-06T09:05:22.726Z,419.08
2019-02-06T09:06:22.763Z,416.18
2019-02-06T09:07:22.705Z,420.84
2019-02-06T09:08:22.722Z,401.82
2019-02-06T09:09:22.696Z,422.21
2019-02-06T09:10:22.680Z,429.36
2019-02-06T09:11:22.645Z,409.64
2019-02-06T09:12:22.651Z,407.29
2019-02-06T09:13:22.675Z,414.39
2019-02-06T09:14:22.624Z,429.27
2019-02-06T09:15:22.610Z,424.17
2019-02-06T09:16:22.594Z,388.98
2019-02-06T09:17:22.572Z,415.43
2019-02-06T09:18:22.573Z,377.19
2019-02-06T09:19:22.591Z,398.91
2019-02-06T09:20:22.562Z,398.37
2019-02-06T09:21:22.540Z,397.11
2019-02-06T09:22:22.549Z,408.78
2019-02-06T09:23:22.542Z,384.80
2019-02-06T09:24:22.550Z,395.36
2019-02-06T09:25:22.501Z,379.47
2019-02-06T09:26:22.497Z,387.97
2019-02-06T09:27:22.484Z,369.33
2019-02-06T09:28:22.474Z,393.13
2019-02-06T09:29:22.453Z,397.81
2019-02-06T09:30:22.462Z,385.94
2019-02-06T09:31:22.460Z,383.14
2019-02-06T09:32:22.415Z,370.30
2019-02-06T09:33:22.411Z,414.19
2019-02-06T09:34:22.389Z,394.92
2019-02-06T09:35:22.401Z,404.82
2019-02-06T09:36:22.404Z,372.81
2019-02-06T09:37:22.374Z,411.93
2019-02-06T09:38:22.357Z,384.02
2019-02-06T09:39:22.349Z,398.14
2019-02-06T09:40:22.346Z,408.74
2019-02-06T09:41:22.327Z,420.62
2019-02-06T09:42:22.307Z,411.09
2019-02-06T09:43:22.294Z,388.12
2019-02-06T09:44:22.292Z,411.37
2019-02-06T09:45:22.315Z,404.93
2019-02-06T09:46:22.296Z,407.94
2019-02-06T09:47:22.269Z,375.53
2019-02-06T09:48:22.246Z,412.83
2019-02-06T09:49:22.249Z,417.39
2019-02-06T09:50:22.278Z,407.92
2019-02-06T09:51:22.237Z,399.04
2019-02-06T09:52:25.242Z,383.09
2019-02-06T09:53:23.188Z,374.16
2019-02-06T09:54:22.181Z,393.92
2019-02-06T09:55:22.189Z,422.40
2019-02-06T09:56:22.203Z,360.07
2019-02-06T09:57:22.156Z,418.26
2019-02-06T09:58:22.142Z,378.11
2019-02-06T09:59:22.132Z,408.66
2019-02-06T10:00:22.123Z,415.25
2019-02-06T10:01:22.131Z,388.33
2019-02-06T10:02:22.091Z,418.41
2019-02-06T10:03:22.071Z,405.76
2019-02-06T10:04:22.076Z,405.39
2019-02-06T10:05:22.175Z,410.98
2019-02-06T10:06:22.128Z,374.15
2019-02-06T10:07:22.217Z,408.31
2019-02-06T10:08:22.030Z,404.08
2019-02-06T10:09:23.161Z,389.61
2019-02-06T10:10:22.014Z,399.93
2019-02-06T10:11:22.021Z,426.63
2019-02-06T10:12:21.978Z,410.25
2019-02-06T10:13:22.020Z,409.23
2019-02-06T10:14:21.955Z,432.57
2019-02-06T10:15:21.940Z,421.73
2019-02-06T10:16:22.157Z,409.47
2019-02-06T10:17:21.925Z,423.95
2019-02-06T10:18:21.918Z,418.40
2019-02-06T10:19:21.905Z,424.13
2019-02-06T10:20:21.889Z,426.54
2019-02-06T10:21:21.902Z,430.70
2019-02-06T10:22:21.881Z,407.53
2019-02-06T10:23:21.870Z,421.60
2019-02-06T10:24:21.842Z,419.51
2019-02-06T10:25:21.840Z,433.62
2019-02-06T10:26:21.843Z,429.04
2019-02-06T10:27:23.970Z,431.15
2019-02-06T10:28:24.142Z,431.77
2019-02-06T10:29:21.796Z,434.13
2019-02-06T10:30:21.788Z,420.10
2019-02-06T10:31:21.798Z,419.14
2019-02-06T10:32:21.750Z,437.12
2019-02-06T10:33:21.773Z,427.55
2019-02-06T10:34:21.734Z,440.81
2019-02-06T10:35:21.718Z,433.20
2019-02-06T10:36:21.737Z,439.67
2019-02-06T10:37:21.739Z,429.06
2019-02-06T10:38:21.691Z,447.40
2019-02-06T10:39:21.674Z,449.48
2019-02-06T10:40:21.674Z,446.51
2019-02-06T10:41:21.664Z,451.08
2019-02-06T10:42:21.680Z,430.01
2019-02-06T10:43:31.591Z,441.02
2019-02-06T10:44:22.622Z,444.62
2019-02-06T10:45:21.613Z,422.81
2019-02-06T10:46:21.618Z,437.85
2019-02-06T10:47:21.590Z,440.18
2019-02-06T10:48:21.590Z,415.89
2019-02-06T10:49:21.576Z,448.19
2019-02-06T10:50:21.583Z,413.74
2019-02-06T10:51:21.581Z,433.30
2019-02-06T10:52:21.714Z,407.57
2019-02-06T10:53:21.525Z,439.42
2019-02-06T10:54:21.532Z,444.55
2019-02-06T10:55:21.514Z,418.76
2019-02-06T10:56:21.514Z,425.67
2019-02-06T10:57:21.482Z,389.29
2019-02-06T10:58:21.467Z,405.76
2019-02-06T10:59:21.458Z,407.85
2019-02-06T11:00:21.456Z,425.92
2019-02-06T11:01:21.466Z,427.86
2019-02-06T11:02:21.438Z,437.74
2019-02-06T11:03:21.428Z,385.07
2019-02-06T11:04:21.400Z,408.42
2019-02-06T11:05:21.393Z,398.52
2019-02-06T11:06:21.407Z,419.08
2019-02-06T11:07:21.371Z,443.67
2019-02-06T11:08:21.374Z,414.62
2019-02-06T11:09:21.358Z,445.02
2019-02-06T11:10:21.332Z,446.45
2019-02-06T11:11:21.344Z,422.53
2019-02-06T11:12:21.321Z,428.14
2019-02-06T11:13:21.318Z,441.72
2019-02-06T11:14:21.295Z,414.77
2019-02-06T11:15:21.283Z,416.93
2019-02-06T11:16:21.327Z,420.40
2019-02-06T11:17:21.261Z,426.34
2019-02-06T11:18:21.246Z,408.82
2019-02-06T11:19:21.243Z,390.05
2019-02-06T11:20:21.233Z,428.53
2019-02-06T11:21:21.236Z,416.30
2019-02-06T11:22:21.244Z,386.30
2019-02-06T11:23:21.205Z,426.21
2019-02-06T11:24:21.181Z,417.19
2019-02-06T11:25:21.173Z,435.49
2019-02-06T11:26:21.179Z,420.49
2019-02-06T11:27:21.175Z,433.03
2019-02-06T11:28:21.139Z,400.20
2019-02-06T11:29:21.123Z,416.41
2019-02-06T11:30:21.120Z,439.10
2019-02-06T11:31:21.107Z,419.11
2019-02-06T11:32:21.140Z,437.03
2019-02-06T11:33:21.091Z,445.88
2019-02-06T11:34:21.084Z,447.63
2019-02-06T11:35:21.070Z,426.95
2019-02-06T11:36:24.140Z,439.17
2019-02-06T11:37:21.067Z,432.08
2019-02-06T11:38:21.029Z,437.39
2019-02-06T11:39:21.014Z,424.99
2019-02-06T11:40:21.013Z,442.53
2019-02-06T11:41:21.000Z,454.02
2019-02-06T11:42:21.006Z,428.96
2019-02-06T11:43:20.967Z,427.70
2019-02-06T11:44:20.975Z,433.38
2019-02-06T11:45:20.957Z,441.83
2019-02-06T11:46:20.950Z,441.71
2019-02-06T11:47:20.961Z,451.68
2019-02-06T11:48:20.938Z,442.26
2019-02-06T11:49:20.904Z,418.31
2019-02-06T11:50:20.889Z,441.99
2019-02-06T11:51:20.883Z,450.64
2019-02-06T11:52:20.877Z,453.63
2019-02-06T11:53:20.906Z,415.03
2019-02-06T11:54:20.850Z,428.30
2019-02-06T11:55:20.856Z,422.66
2019-02-06T11:56:20.820Z,438.83
2019-02-06T11:57:20.815Z,444.40
2019-02-06T11:58:20.806Z,447.73
2019-02-06T11:59:20.818Z,437.10
2019-02-06T12:00:20.787Z,444.35
2019-02-06T12:01:20.766Z,455.94
2019-02-06T12:02:20.755Z,448.86
2019-02-06T12:03:22.257Z,445.70
2019-02-06T12:04:20.771Z,469.80
2019-02-06T12:05:20.735Z,440.96
2019-02-06T12:06:20.726Z,447.71
2019-02-06T12:07:20.713Z,438.81
2019-02-06T12:08:20.690Z,446.02
2019-02-06T12:09:20.702Z,455.31
2019-02-06T12:10:20.669Z,461.77
2019-02-06T12:11:20.653Z,453.11
2019-02-06T12:12:20.654Z,444.86
2019-02-06T12:13:20.659Z,453.31
2019-02-06T12:14:20.631Z,449.88
2019-02-06T12:15:20.628Z,440.07
2019-02-06T12:16:20.786Z,450.07
2019-02-06T12:17:20.603Z,448.03
2019-02-06T12:18:20.592Z,448.94
2019-02-06T12:19:20.582Z,447.80
2019-02-06T12:20:20.603Z,450.15
2019-02-06T12:21:20.551Z,442.79
2019-02-06T12:22:20.546Z,454.22
2019-02-06T12:23:31.586Z,445.24
2019-02-06T12:24:21.534Z,439.34
2019-02-06T12:25:20.521Z,443.73
2019-02-06T12:26:21.054Z,457.68
2019-02-06T12:27:20.495Z,448.31
2019-02-06T12:28:20.479Z,455.68